sensor_id;sensor_type;location;lat;lon;timestamp;P1;durP1;ratioP1;P2;durP2;ratioP2
17510;SDS011;8873;48.818;9.422;2022-07-18T00:00:28;3.63;;;1.70;;
17510;SDS011;8873;48.818;9.422;2022-07-18T00:03:06;5.70;;;2.13;;
17510;SDS011;8873;48.818;9.422;2022-07-18T00:05:39;2.00;;;1.80;;
17510;SDS011;8873;48.818;9.422;2022-07-18T00:08:13;2.50;;;2.20;;
17510;SDS011;8873;48.818;9.422;2022-07-18T00:10:42;2.28;;;1.90;;
17510;SDS011;8873;48.818;9.422;2022-07-18T00:13:13;1.83;;;1.73;;
17510;SDS011;8873;48.818;9.422;2022-07-18T00:15:47;6.38;;;2.20;;
17510;SDS011;8873;48.818;9.422;2022-07-18T00:18:17;4.47;;;2.13;;
17510;SDS011;8873;48.818;9.422;2022-07-18T00:20:45;3.45;;;2.22;;
17510;SDS011;8873;48.818;9.422;2022-07-18T00:23:13;3.75;;;1.95;;
17510;SDS011;8873;48.818;9.422;2022-07-18T00:25:43;4.45;;;2.05;;
17510;SDS011;8873;48.818;9.422;2022-07-18T00:28:17;1.92;;;1.83;;
17510;SDS011;8873;48.818;9.422;2022-07-18T00:30:46;2.10;;;1.90;;
17510;SDS011;8873;48.818;9.422;2022-07-18T00:33:14;1.80;;;1.70;;
17510;SDS011;8873;48.818;9.422;2022-07-18T00:35:42;2.70;;;1.77;;
17510;SDS011;8873;48.818;9.422;2022-07-18T00:38:10;2.08;;;1.85;;
17510;SDS011;8873;48.818;9.422;2022-07-18T00:40:37;2.28;;;1.85;;
17510;SDS011;8873;48.818;9.422;2022-07-18T00:43:06;1.60;;;1.60;;
17510;SDS011;8873;48.818;9.422;2022-07-18T00:45:37;4.65;;;2.17;;
17510;SDS011;8873;48.818;9.422;2022-07-18T00:48:05;2.03;;;1.92;;
17510;SDS011;8873;48.818;9.422;2022-07-18T00:50:33;3.53;;;2.35;;
17510;SDS011;8873;48.818;9.422;2022-07-18T00:53:01;2.65;;;2.35;;
17510;SDS011;8873;48.818;9.422;2022-07-18T00:55:28;2.58;;;2.08;;
17510;SDS011;8873;48.818;9.422;2022-07-18T00:57:57;5.97;;;1.70;;
17510;SDS011;8873;48.818;9.422;2022-07-18T01:00:26;2.72;;;1.80;;
17510;SDS011;8873;48.818;9.422;2022-07-18T01:03:11;6.38;;;1.60;;
17510;SDS011;8873;48.818;9.422;2022-07-18T01:05:42;1.60;;;1.50;;
17510;SDS011;8873;48.818;9.422;2022-07-18T01:08:09;1.80;;;1.70;;
17510;SDS011;8873;48.818;9.422;2022-07-18T01:10:37;1.38;;;1.33;;
17510;SDS011;8873;48.818;9.422;2022-07-18T01:13:04;1.58;;;1.48;;
17510;SDS011;8873;48.818;9.422;2022-07-18T01:15:33;2.03;;;1.85;;
17510;SDS011;8873;48.818;9.422;2022-07-18T01:18:01;2.97;;;2.03;;
17510;SDS011;8873;48.818;9.422;2022-07-18T01:20:30;4.57;;;2.38;;
17510;SDS011;8873;48.818;9.422;2022-07-18T01:22:58;2.97;;;2.53;;
17510;SDS011;8873;48.818;9.422;2022-07-18T01:25:26;3.35;;;2.15;;
17510;SDS011;8873;48.818;9.422;2022-07-18T01:27:54;2.70;;;1.95;;
17510;SDS011;8873;48.818;9.422;2022-07-18T01:30:23;1.95;;;1.80;;
17510;SDS011;8873;48.818;9.422;2022-07-18T01:32:54;5.18;;;1.88;;
17510;SDS011;8873;48.818;9.422;2022-07-18T01:35:22;1.80;;;1.70;;
17510;SDS011;8873;48.818;9.422;2022-07-18T01:37:51;3.80;;;1.80;;
17510;SDS011;8873;48.818;9.422;2022-07-18T01:40:19;3.35;;;1.60;;
17510;SDS011;8873;48.818;9.422;2022-07-18T01:42:47;1.85;;;1.60;;
17510;SDS011;8873;48.818;9.422;2022-07-18T01:45:15;4.05;;;1.70;;
17510;SDS011;8873;48.818;9.422;2022-07-18T01:47:45;1.70;;;1.60;;
17510;SDS011;8873;48.818;9.422;2022-07-18T01:50:13;2.20;;;2.00;;
17510;SDS011;8873;48.818;9.422;2022-07-18T01:52:41;2.05;;;1.80;;
17510;SDS011;8873;48.818;9.422;2022-07-18T01:55:10;1.60;;;1.50;;
17510;SDS011;8873;48.818;9.422;2022-07-18T01:57:38;3.00;;;1.90;;
17510;SDS011;8873;48.818;9.422;2022-07-18T02:00:08;2.17;;;1.70;;
17510;SDS011;8873;48.818;9.422;2022-07-18T02:02:37;2.92;;;1.88;;
17510;SDS011;8873;48.818;9.422;2022-07-18T02:05:05;1.80;;;1.70;;
17510;SDS011;8873;48.818;9.422;2022-07-18T02:07:34;3.05;;;1.80;;
17510;SDS011;8873;48.818;9.422;2022-07-18T02:10:03;3.28;;;2.10;;
17510;SDS011;8873;48.818;9.422;2022-07-18T02:12:33;3.17;;;2.10;;
17510;SDS011;8873;48.818;9.422;2022-07-18T02:15:01;4.30;;;2.00;;
17510;SDS011;8873;48.818;9.422;2022-07-18T02:17:29;2.22;;;2.03;;
17510;SDS011;8873;48.818;9.422;2022-07-18T02:19:57;2.38;;;2.25;;
17510;SDS011;8873;48.818;9.422;2022-07-18T02:22:25;2.78;;;2.25;;
17510;SDS011;8873;48.818;9.422;2022-07-18T02:24:52;4.03;;;2.63;;
17510;SDS011;8873;48.818;9.422;2022-07-18T02:27:24;2.20;;;2.00;;
17510;SDS011;8873;48.818;9.422;2022-07-18T02:29:53;2.63;;;2.17;;
17510;SDS011;8873;48.818;9.422;2022-07-18T02:32:21;2.00;;;1.90;;
17510;SDS011;8873;48.818;9.422;2022-07-18T02:34:51;3.22;;;2.30;;
17510;SDS011;8873;48.818;9.422;2022-07-18T02:37:20;2.92;;;2.17;;
17510;SDS011;8873;48.818;9.422;2022-07-18T02:39:48;5.97;;;2.60;;
17510;SDS011;8873;48.818;9.422;2022-07-18T02:42:17;2.90;;;2.40;;
17510;SDS011;8873;48.818;9.422;2022-07-18T02:44:44;2.85;;;2.47;;
17510;SDS011;8873;48.818;9.422;2022-07-18T02:47:13;2.42;;;2.20;;
17510;SDS011;8873;48.818;9.422;2022-07-18T02:49:41;2.40;;;2.30;;
17510;SDS011;8873;48.818;9.422;2022-07-18T02:52:08;2.35;;;2.15;;
17510;SDS011;8873;48.818;9.422;2022-07-18T02:54:37;2.13;;;1.92;;
17510;SDS011;8873;48.818;9.422;2022-07-18T02:57:04;2.35;;;2.13;;
17510;SDS011;8873;48.818;9.422;2022-07-18T02:59:32;6.38;;;2.00;;
17510;SDS011;8873;48.818;9.422;2022-07-18T03:02:00;2.00;;;1.80;;
17510;SDS011;8873;48.818;9.422;2022-07-18T03:04:29;2.05;;;1.88;;
17510;SDS011;8873;48.818;9.422;2022-07-18T03:06:57;2.20;;;2.00;;
17510;SDS011;8873;48.818;9.422;2022-07-18T03:09:25;2.97;;;2.00;;
17510;SDS011;8873;48.818;9.422;2022-07-18T03:11:54;4.32;;;1.90;;
17510;SDS011;8873;48.818;9.422;2022-07-18T03:14:22;2.40;;;2.20;;
17510;SDS011;8873;48.818;9.422;2022-07-18T03:16:50;2.53;;;1.90;;
17510;SDS011;8873;48.818;9.422;2022-07-18T03:19:17;2.45;;;2.25;;
17510;SDS011;8873;48.818;9.422;2022-07-18T03:21:46;3.08;;;2.00;;
17510;SDS011;8873;48.818;9.422;2022-07-18T03:24:14;2.08;;;1.98;;
17510;SDS011;8873;48.818;9.422;2022-07-18T03:26:42;6.03;;;2.17;;
17510;SDS011;8873;48.818;9.422;2022-07-18T03:29:10;2.47;;;2.20;;
17510;SDS011;8873;48.818;9.422;2022-07-18T03:31:37;4.10;;;2.67;;
17510;SDS011;8873;48.818;9.422;2022-07-18T03:34:05;4.10;;;2.90;;
17510;SDS011;8873;48.818;9.422;2022-07-18T03:36:35;2.60;;;2.38;;
17510;SDS011;8873;48.818;9.422;2022-07-18T03:39:04;3.55;;;2.13;;
17510;SDS011;8873;48.818;9.422;2022-07-18T03:41:32;4.68;;;2.00;;
17510;SDS011;8873;48.818;9.422;2022-07-18T03:44:00;3.38;;;2.47;;
17510;SDS011;8873;48.818;9.422;2022-07-18T03:46:27;2.53;;;2.28;;
17510;SDS011;8873;48.818;9.422;2022-07-18T03:48:55;2.53;;;2.33;;
17510;SDS011;8873;48.818;9.422;2022-07-18T03:51:25;3.63;;;2.28;;
17510;SDS011;8873;48.818;9.422;2022-07-18T03:53:53;3.40;;;2.30;;
17510;SDS011;8873;48.818;9.422;2022-07-18T03:56:22;4.25;;;2.30;;
17510;SDS011;8873;48.818;9.422;2022-07-18T03:58:49;5.35;;;2.45;;
17510;SDS011;8873;48.818;9.422;2022-07-18T04:01:17;2.50;;;2.30;;
17510;SDS011;8873;48.818;9.422;2022-07-18T04:03:44;5.32;;;2.47;;
17510;SDS011;8873;48.818;9.422;2022-07-18T04:06:13;3.38;;;2.17;;
17510;SDS011;8873;48.818;9.422;2022-07-18T04:08:41;3.10;;;2.72;;
17510;SDS011;8873;48.818;9.422;2022-07-18T04:11:09;2.58;;;2.38;;
17510;SDS011;8873;48.818;9.422;2022-07-18T04:13:38;2.65;;;2.42;;
17510;SDS011;8873;48.818;9.422;2022-07-18T04:16:07;4.75;;;2.33;;
17510;SDS011;8873;48.818;9.422;2022-07-18T04:18:35;4.93;;;2.45;;
17510;SDS011;8873;48.818;9.422;2022-07-18T04:21:05;3.15;;;2.60;;
17510;SDS011;8873;48.818;9.422;2022-07-18T04:23:33;3.10;;;2.78;;
17510;SDS011;8873;48.818;9.422;2022-07-18T04:26:02;6.20;;;2.60;;
17510;SDS011;8873;48.818;9.422;2022-07-18T04:28:31;3.28;;;2.78;;
17510;SDS011;8873;48.818;9.422;2022-07-18T04:30:59;5.25;;;2.60;;
17510;SDS011;8873;48.818;9.422;2022-07-18T04:33:27;4.88;;;2.45;;
17510;SDS011;8873;48.818;9.422;2022-07-18T04:35:55;3.88;;;2.40;;
17510;SDS011;8873;48.818;9.422;2022-07-18T04:38:22;5.78;;;2.63;;
17510;SDS011;8873;48.818;9.422;2022-07-18T04:40:50;4.30;;;2.30;;
17510;SDS011;8873;48.818;9.422;2022-07-18T04:43:18;2.78;;;2.35;;
17510;SDS011;8873;48.818;9.422;2022-07-18T04:45:45;5.93;;;2.25;;
17510;SDS011;8873;48.818;9.422;2022-07-18T04:48:14;2.17;;;2.08;;
17510;SDS011;8873;48.818;9.422;2022-07-18T04:50:42;3.85;;;2.45;;
17510;SDS011;8873;48.818;9.422;2022-07-18T04:53:12;3.28;;;2.30;;
17510;SDS011;8873;48.818;9.422;2022-07-18T04:55:40;3.22;;;2.45;;
17510;SDS011;8873;48.818;9.422;2022-07-18T04:58:07;2.42;;;2.15;;
17510;SDS011;8873;48.818;9.422;2022-07-18T05:00:35;2.50;;;2.30;;
17510;SDS011;8873;48.818;9.422;2022-07-18T05:03:02;2.92;;;2.67;;
17510;SDS011;8873;48.818;9.422;2022-07-18T05:05:32;3.03;;;2.72;;
17510;SDS011;8873;48.818;9.422;2022-07-18T05:08:02;3.00;;;2.70;;
17510;SDS011;8873;48.818;9.422;2022-07-18T05:10:30;3.00;;;2.53;;
17510;SDS011;8873;48.818;9.422;2022-07-18T05:12:57;5.00;;;2.70;;
17510;SDS011;8873;48.818;9.422;2022-07-18T05:15:25;3.17;;;2.90;;
17510;SDS011;8873;48.818;9.422;2022-07-18T05:17:53;5.65;;;2.47;;
17510;SDS011;8873;48.818;9.422;2022-07-18T05:20:21;5.28;;;2.42;;
17510;SDS011;8873;48.818;9.422;2022-07-18T05:22:50;2.45;;;2.25;;
17510;SDS011;8873;48.818;9.422;2022-07-18T05:25:19;2.95;;;2.40;;
17510;SDS011;8873;48.818;9.422;2022-07-18T05:27:48;7.90;;;3.45;;
17510;SDS011;8873;48.818;9.422;2022-07-18T05:30:15;7.55;;;2.90;;
17510;SDS011;8873;48.818;9.422;2022-07-18T05:32:43;7.22;;;2.47;;
17510;SDS011;8873;48.818;9.422;2022-07-18T05:35:11;2.50;;;2.30;;
17510;SDS011;8873;48.818;9.422;2022-07-18T05:37:40;2.80;;;2.50;;
17510;SDS011;8873;48.818;9.422;2022-07-18T05:40:10;4.97;;;2.67;;
17510;SDS011;8873;48.818;9.422;2022-07-18T05:42:38;9.77;;;2.90;;
17510;SDS011;8873;48.818;9.422;2022-07-18T05:45:22;2.53;;;2.28;;
17510;SDS011;8873;48.818;9.422;2022-07-18T05:47:50;2.75;;;2.47;;
17510;SDS011;8873;48.818;9.422;2022-07-18T05:50:18;6.45;;;2.38;;
17510;SDS011;8873;48.818;9.422;2022-07-18T05:52:45;2.45;;;2.25;;
17510;SDS011;8873;48.818;9.422;2022-07-18T05:55:14;3.42;;;2.50;;
17510;SDS011;8873;48.818;9.422;2022-07-18T05:57:43;3.15;;;2.47;;
17510;SDS011;8873;48.818;9.422;2022-07-18T06:00:11;3.78;;;2.33;;
17510;SDS011;8873;48.818;9.422;2022-07-18T06:02:39;3.65;;;2.60;;
17510;SDS011;8873;48.818;9.422;2022-07-18T06:05:08;7.00;;;2.30;;
17510;SDS011;8873;48.818;9.422;2022-07-18T06:07:48;6.10;;;2.70;;
17510;SDS011;8873;48.818;9.422;2022-07-18T06:10:18;2.85;;;2.58;;
17510;SDS011;8873;48.818;9.422;2022-07-18T06:12:45;4.55;;;2.55;;
17510;SDS011;8873;48.818;9.422;2022-07-18T06:15:14;2.42;;;2.22;;
17510;SDS011;8873;48.818;9.422;2022-07-18T06:17:41;3.83;;;2.47;;
17510;SDS011;8873;48.818;9.422;2022-07-18T06:20:09;3.88;;;2.40;;
17510;SDS011;8873;48.818;9.422;2022-07-18T06:22:37;3.55;;;3.08;;
17510;SDS011;8873;48.818;9.422;2022-07-18T06:25:05;4.75;;;2.45;;
17510;SDS011;8873;48.818;9.422;2022-07-18T06:27:35;3.25;;;2.28;;
17510;SDS011;8873;48.818;9.422;2022-07-18T06:30:03;6.35;;;2.55;;
17510;SDS011;8873;48.818;9.422;2022-07-18T06:32:31;5.40;;;3.22;;
17510;SDS011;8873;48.818;9.422;2022-07-18T06:34:59;4.18;;;2.45;;
17510;SDS011;8873;48.818;9.422;2022-07-18T06:37:26;8.50;;;2.45;;
17510;SDS011;8873;48.818;9.422;2022-07-18T06:39:54;7.82;;;2.20;;
17510;SDS011;8873;48.818;9.422;2022-07-18T06:42:28;4.45;;;2.85;;
17510;SDS011;8873;48.818;9.422;2022-07-18T06:45:22;3.53;;;2.38;;
17510;SDS011;8873;48.818;9.422;2022-07-18T06:47:53;3.80;;;2.30;;
17510;SDS011;8873;48.818;9.422;2022-07-18T06:50:21;5.05;;;2.72;;
17510;SDS011;8873;48.818;9.422;2022-07-18T06:52:48;3.80;;;2.42;;
17510;SDS011;8873;48.818;9.422;2022-07-18T06:55:16;4.95;;;2.80;;
17510;SDS011;8873;48.818;9.422;2022-07-18T06:57:44;5.75;;;2.60;;
17510;SDS011;8873;48.818;9.422;2022-07-18T07:00:15;3.70;;;2.78;;
17510;SDS011;8873;48.818;9.422;2022-07-18T07:02:45;2.50;;;2.30;;
17510;SDS011;8873;48.818;9.422;2022-07-18T07:05:15;4.05;;;2.50;;
17510;SDS011;8873;48.818;9.422;2022-07-18T07:07:43;4.25;;;2.10;;
17510;SDS011;8873;48.818;9.422;2022-07-18T07:10:14;9.82;;;2.60;;
17510;SDS011;8873;48.818;9.422;2022-07-18T07:12:42;3.35;;;2.38;;
17510;SDS011;8873;48.818;9.422;2022-07-18T07:15:10;3.47;;;2.10;;
17510;SDS011;8873;48.818;9.422;2022-07-18T07:17:39;2.33;;;2.13;;
17510;SDS011;8873;48.818;9.422;2022-07-18T07:20:07;2.58;;;2.38;;
17510;SDS011;8873;48.818;9.422;2022-07-18T07:22:40;2.45;;;2.20;;
17510;SDS011;8873;48.818;9.422;2022-07-18T07:25:08;5.72;;;2.20;;
17510;SDS011;8873;48.818;9.422;2022-07-18T07:27:42;4.30;;;2.20;;
17510;SDS011;8873;48.818;9.422;2022-07-18T07:30:10;3.45;;;2.20;;
17510;SDS011;8873;48.818;9.422;2022-07-18T07:32:40;2.40;;;2.20;;
17510;SDS011;8873;48.818;9.422;2022-07-18T07:35:09;4.93;;;2.20;;
17510;SDS011;8873;48.818;9.422;2022-07-18T07:37:42;6.40;;;2.58;;
17510;SDS011;8873;48.818;9.422;2022-07-18T07:40:10;3.90;;;2.40;;
17510;SDS011;8873;48.818;9.422;2022-07-18T07:42:38;2.63;;;2.40;;
17510;SDS011;8873;48.818;9.422;2022-07-18T07:45:06;5.38;;;2.50;;
17510;SDS011;8873;48.818;9.422;2022-07-18T07:47:34;2.50;;;2.05;;
17510;SDS011;8873;48.818;9.422;2022-07-18T07:50:04;2.30;;;2.10;;
17510;SDS011;8873;48.818;9.422;2022-07-18T07:52:31;7.53;;;2.28;;
17510;SDS011;8873;48.818;9.422;2022-07-18T07:54:59;2.38;;;2.10;;
17510;SDS011;8873;48.818;9.422;2022-07-18T07:57:27;2.30;;;2.05;;
17510;SDS011;8873;48.818;9.422;2022-07-18T08:00:00;5.18;;;2.30;;
17510;SDS011;8873;48.818;9.422;2022-07-18T08:02:28;6.55;;;2.92;;
17510;SDS011;8873;48.818;9.422;2022-07-18T08:04:56;5.38;;;2.10;;
17510;SDS011;8873;48.818;9.422;2022-07-18T08:07:25;2.10;;;2.00;;
17510;SDS011;8873;48.818;9.422;2022-07-18T08:09:52;6.00;;;2.45;;
17510;SDS011;8873;48.818;9.422;2022-07-18T08:12:20;2.72;;;2.22;;
17510;SDS011;8873;48.818;9.422;2022-07-18T08:14:47;3.13;;;2.35;;
17510;SDS011;8873;48.818;9.422;2022-07-18T08:17:16;2.72;;;2.50;;
17510;SDS011;8873;48.818;9.422;2022-07-18T08:19:43;2.33;;;2.13;;
17510;SDS011;8873;48.818;9.422;2022-07-18T08:22:11;3.65;;;2.25;;
17510;SDS011;8873;48.818;9.422;2022-07-18T08:24:40;4.70;;;2.38;;
17510;SDS011;8873;48.818;9.422;2022-07-18T08:27:07;4.53;;;1.95;;
17510;SDS011;8873;48.818;9.422;2022-07-18T08:29:35;3.45;;;2.20;;
17510;SDS011;8873;48.818;9.422;2022-07-18T08:32:23;1.98;;;1.88;;
17510;SDS011;8873;48.818;9.422;2022-07-18T08:34:51;2.13;;;1.98;;
17510;SDS011;8873;48.818;9.422;2022-07-18T08:37:20;3.22;;;1.90;;
17510;SDS011;8873;48.818;9.422;2022-07-18T08:39:49;4.55;;;2.67;;
17510;SDS011;8873;48.818;9.422;2022-07-18T08:42:16;2.90;;;2.40;;
17510;SDS011;8873;48.818;9.422;2022-07-18T08:44:46;6.22;;;2.30;;
17510;SDS011;8873;48.818;9.422;2022-07-18T08:47:14;2.25;;;1.95;;
17510;SDS011;8873;48.818;9.422;2022-07-18T08:49:43;3.10;;;2.30;;
17510;SDS011;8873;48.818;9.422;2022-07-18T08:52:11;4.78;;;2.08;;
17510;SDS011;8873;48.818;9.422;2022-07-18T08:54:56;2.63;;;2.20;;
17510;SDS011;8873;48.818;9.422;2022-07-18T08:57:25;4.25;;;2.35;;
17510;SDS011;8873;48.818;9.422;2022-07-18T08:59:56;2.10;;;2.00;;
17510;SDS011;8873;48.818;9.422;2022-07-18T09:02:24;3.63;;;2.33;;
17510;SDS011;8873;48.818;9.422;2022-07-18T09:04:52;3.90;;;2.40;;
17510;SDS011;8873;48.818;9.422;2022-07-18T09:07:40;2.10;;;2.00;;
17510;SDS011;8873;48.818;9.422;2022-07-18T09:10:10;2.47;;;2.30;;
17510;SDS011;8873;48.818;9.422;2022-07-18T09:12:37;2.30;;;2.10;;
17510;SDS011;8873;48.818;9.422;2022-07-18T09:15:11;2.40;;;2.00;;
17510;SDS011;8873;48.818;9.422;2022-07-18T09:17:43;3.70;;;2.00;;
17510;SDS011;8873;48.818;9.422;2022-07-18T09:20:11;2.88;;;2.00;;
17510;SDS011;8873;48.818;9.422;2022-07-18T09:22:41;2.22;;;2.00;;
17510;SDS011;8873;48.818;9.422;2022-07-18T09:25:11;2.10;;;2.00;;
17510;SDS011;8873;48.818;9.422;2022-07-18T09:27:40;2.30;;;2.20;;
17510;SDS011;8873;48.818;9.422;2022-07-18T09:30:18;2.22;;;2.08;;
17510;SDS011;8873;48.818;9.422;2022-07-18T09:32:47;3.45;;;1.98;;
17510;SDS011;8873;48.818;9.422;2022-07-18T09:35:16;2.10;;;2.00;;
17510;SDS011;8873;48.818;9.422;2022-07-18T09:37:59;1.80;;;1.70;;
17510;SDS011;8873;48.818;9.422;2022-07-18T09:40:29;1.80;;;1.70;;
17510;SDS011;8873;48.818;9.422;2022-07-18T09:42:58;3.35;;;1.88;;
17510;SDS011;8873;48.818;9.422;2022-07-18T09:45:28;1.70;;;1.60;;
17510;SDS011;8873;48.818;9.422;2022-07-18T09:47:56;2.67;;;1.60;;
17510;SDS011;8873;48.818;9.422;2022-07-18T09:50:28;1.80;;;1.70;;
17510;SDS011;8873;48.818;9.422;2022-07-18T09:52:57;2.15;;;1.98;;
17510;SDS011;8873;48.818;9.422;2022-07-18T09:55:47;1.80;;;1.70;;
17510;SDS011;8873;48.818;9.422;2022-07-18T09:58:17;2.03;;;1.77;;
17510;SDS011;8873;48.818;9.422;2022-07-18T10:00:46;2.92;;;1.90;;
17510;SDS011;8873;48.818;9.422;2022-07-18T10:03:13;2.50;;;1.90;;
17510;SDS011;8873;48.818;9.422;2022-07-18T10:05:42;2.35;;;2.25;;
17510;SDS011;8873;48.818;9.422;2022-07-18T10:08:11;6.10;;;2.20;;
17510;SDS011;8873;48.818;9.422;2022-07-18T10:10:40;2.92;;;2.10;;
17510;SDS011;8873;48.818;9.422;2022-07-18T10:13:09;1.65;;;1.65;;
17510;SDS011;8873;48.818;9.422;2022-07-18T10:15:37;2.00;;;1.90;;
17510;SDS011;8873;48.818;9.422;2022-07-18T10:18:06;3.15;;;1.90;;
17510;SDS011;8873;48.818;9.422;2022-07-18T10:20:36;1.65;;;1.58;;
17510;SDS011;8873;48.818;9.422;2022-07-18T10:23:08;3.92;;;2.40;;
17510;SDS011;8873;48.818;9.422;2022-07-18T10:25:36;2.28;;;1.92;;
17510;SDS011;8873;48.818;9.422;2022-07-18T10:28:06;2.05;;;1.95;;
17510;SDS011;8873;48.818;9.422;2022-07-18T10:30:41;2.10;;;2.00;;
17510;SDS011;8873;48.818;9.422;2022-07-18T10:36:00;2.00;;;1.80;;
17510;SDS011;8873;48.818;9.422;2022-07-18T10:38:37;1.90;;;1.80;;
17510;SDS011;8873;48.818;9.422;2022-07-18T10:41:09;1.95;;;1.80;;
17510;SDS011;8873;48.818;9.422;2022-07-18T10:43:38;1.60;;;1.60;;
17510;SDS011;8873;48.818;9.422;2022-07-18T10:46:08;3.28;;;1.90;;
17510;SDS011;8873;48.818;9.422;2022-07-18T10:48:55;3.95;;;1.90;;
17510;SDS011;8873;48.818;9.422;2022-07-18T10:51:30;1.95;;;1.85;;
17510;SDS011;8873;48.818;9.422;2022-07-18T10:54:06;1.80;;;1.70;;
17510;SDS011;8873;48.818;9.422;2022-07-18T10:59:21;1.65;;;1.65;;
17510;SDS011;8873;48.818;9.422;2022-07-18T11:01:53;2.00;;;1.83;;
17510;SDS011;8873;48.818;9.422;2022-07-18T11:04:21;1.85;;;1.75;;
17510;SDS011;8873;48.818;9.422;2022-07-18T11:07:02;2.20;;;2.10;;
17510;SDS011;8873;48.818;9.422;2022-07-18T11:09:31;2.13;;;2.03;;
17510;SDS011;8873;48.818;9.422;2022-07-18T11:15:01;2.10;;;1.70;;
17510;SDS011;8873;48.818;9.422;2022-07-18T11:17:56;1.70;;;1.70;;
17510;SDS011;8873;48.818;9.422;2022-07-18T11:20:37;2.28;;;1.85;;
17510;SDS011;8873;48.818;9.422;2022-07-18T11:23:12;1.67;;;1.58;;
17510;SDS011;8873;48.818;9.422;2022-07-18T11:25:40;1.80;;;1.70;;
17510;SDS011;8873;48.818;9.422;2022-07-18T11:28:26;2.30;;;1.90;;
17510;SDS011;8873;48.818;9.422;2022-07-18T11:31:00;1.80;;;1.80;;
17510;SDS011;8873;48.818;9.422;2022-07-18T11:33:31;2.13;;;2.03;;
17510;SDS011;8873;48.818;9.422;2022-07-18T11:36:02;2.50;;;1.90;;
17510;SDS011;8873;48.818;9.422;2022-07-18T11:38:31;1.83;;;1.73;;
17510;SDS011;8873;48.818;9.422;2022-07-18T11:41:16;2.20;;;1.80;;
17510;SDS011;8873;48.818;9.422;2022-07-18T11:43:44;10.65;;;2.00;;
17510;SDS011;8873;48.818;9.422;2022-07-18T11:46:12;2.15;;;1.70;;
17510;SDS011;8873;48.818;9.422;2022-07-18T11:48:44;4.40;;;1.80;;
17510;SDS011;8873;48.818;9.422;2022-07-18T11:51:12;1.70;;;1.70;;
17510;SDS011;8873;48.818;9.422;2022-07-18T11:53:43;4.43;;;2.10;;
17510;SDS011;8873;48.818;9.422;2022-07-18T11:56:11;1.80;;;1.70;;
17510;SDS011;8873;48.818;9.422;2022-07-18T11:58:40;3.08;;;1.90;;
17510;SDS011;8873;48.818;9.422;2022-07-18T12:01:08;1.80;;;1.80;;
17510;SDS011;8873;48.818;9.422;2022-07-18T12:03:39;1.88;;;1.75;;
17510;SDS011;8873;48.818;9.422;2022-07-18T12:06:11;2.20;;;2.10;;
17510;SDS011;8873;48.818;9.422;2022-07-18T12:08:40;2.20;;;2.00;;
17510;SDS011;8873;48.818;9.422;2022-07-18T12:11:10;1.98;;;1.88;;
17510;SDS011;8873;48.818;9.422;2022-07-18T12:13:38;2.10;;;2.00;;
17510;SDS011;8873;48.818;9.422;2022-07-18T12:16:06;2.25;;;1.70;;
17510;SDS011;8873;48.818;9.422;2022-07-18T12:18:34;2.17;;;2.08;;
17510;SDS011;8873;48.818;9.422;2022-07-18T12:21:08;1.88;;;1.77;;
17510;SDS011;8873;48.818;9.422;2022-07-18T12:23:37;2.00;;;1.88;;
17510;SDS011;8873;48.818;9.422;2022-07-18T12:26:05;1.90;;;1.80;;
17510;SDS011;8873;48.818;9.422;2022-07-18T12:28:32;2.20;;;2.00;;
17510;SDS011;8873;48.818;9.422;2022-07-18T12:31:00;2.22;;;1.83;;
17510;SDS011;8873;48.818;9.422;2022-07-18T12:33:28;2.05;;;1.95;;
17510;SDS011;8873;48.818;9.422;2022-07-18T12:35:56;2.60;;;2.13;;
17510;SDS011;8873;48.818;9.422;2022-07-18T12:38:24;2.10;;;2.00;;
17510;SDS011;8873;48.818;9.422;2022-07-18T12:40:54;1.90;;;1.80;;
17510;SDS011;8873;48.818;9.422;2022-07-18T12:43:25;2.25;;;1.90;;
17510;SDS011;8873;48.818;9.422;2022-07-18T12:45:53;2.05;;;1.95;;
17510;SDS011;8873;48.818;9.422;2022-07-18T12:48:21;4.97;;;2.03;;
17510;SDS011;8873;48.818;9.422;2022-07-18T12:50:55;2.92;;;1.95;;
17510;SDS011;8873;48.818;9.422;2022-07-18T12:53:23;5.38;;;2.20;;
17510;SDS011;8873;48.818;9.422;2022-07-18T12:55:50;2.33;;;2.22;;
17510;SDS011;8873;48.818;9.422;2022-07-18T12:58:19;2.50;;;2.30;;
17510;SDS011;8873;48.818;9.422;2022-07-18T13:00:49;2.40;;;2.20;;
17510;SDS011;8873;48.818;9.422;2022-07-18T13:03:32;1.88;;;1.77;;
17510;SDS011;8873;48.818;9.422;2022-07-18T13:06:00;2.10;;;2.00;;
17510;SDS011;8873;48.818;9.422;2022-07-18T13:08:27;1.75;;;1.75;;
17510;SDS011;8873;48.818;9.422;2022-07-18T13:10:55;2.45;;;2.25;;
17510;SDS011;8873;48.818;9.422;2022-07-18T13:13:25;2.00;;;1.90;;
17510;SDS011;8873;48.818;9.422;2022-07-18T13:15:53;2.40;;;2.20;;
17510;SDS011;8873;48.818;9.422;2022-07-18T13:18:21;2.63;;;2.33;;
17510;SDS011;8873;48.818;9.422;2022-07-18T13:20:49;2.33;;;2.13;;
17510;SDS011;8873;48.818;9.422;2022-07-18T13:23:16;2.67;;;2.10;;
17510;SDS011;8873;48.818;9.422;2022-07-18T13:25:44;2.10;;;2.00;;
17510;SDS011;8873;48.818;9.422;2022-07-18T13:28:12;2.10;;;1.90;;
17510;SDS011;8873;48.818;9.422;2022-07-18T13:30:41;2.38;;;2.28;;
17510;SDS011;8873;48.818;9.422;2022-07-18T13:33:10;4.45;;;2.22;;
17510;SDS011;8873;48.818;9.422;2022-07-18T13:35:37;2.20;;;2.10;;
17510;SDS011;8873;48.818;9.422;2022-07-18T13:38:05;3.17;;;1.80;;
17510;SDS011;8873;48.818;9.422;2022-07-18T13:40:34;2.17;;;2.00;;
17510;SDS011;8873;48.818;9.422;2022-07-18T13:43:01;1.92;;;1.92;;
17510;SDS011;8873;48.818;9.422;2022-07-18T13:45:29;2.55;;;1.85;;
17510;SDS011;8873;48.818;9.422;2022-07-18T13:47:58;2.15;;;1.95;;
17510;SDS011;8873;48.818;9.422;2022-07-18T13:50:26;2.22;;;2.13;;
17510;SDS011;8873;48.818;9.422;2022-07-18T13:52:54;3.15;;;2.10;;
17510;SDS011;8873;48.818;9.422;2022-07-18T13:55:21;4.65;;;2.00;;
17510;SDS011;8873;48.818;9.422;2022-07-18T13:57:50;2.20;;;2.10;;
17510;SDS011;8873;48.818;9.422;2022-07-18T14:00:18;2.28;;;2.10;;
17510;SDS011;8873;48.818;9.422;2022-07-18T14:02:45;4.63;;;2.00;;
17510;SDS011;8873;48.818;9.422;2022-07-18T14:05:18;3.55;;;2.22;;
17510;SDS011;8873;48.818;9.422;2022-07-18T14:07:45;2.88;;;2.10;;
17510;SDS011;8873;48.818;9.422;2022-07-18T14:10:14;4.30;;;1.95;;
17510;SDS011;8873;48.818;9.422;2022-07-18T14:12:44;2.35;;;2.22;;
17510;SDS011;8873;48.818;9.422;2022-07-18T14:15:12;2.17;;;1.90;;
17510;SDS011;8873;48.818;9.422;2022-07-18T14:17:40;2.28;;;2.17;;
17510;SDS011;8873;48.818;9.422;2022-07-18T14:20:08;6.32;;;2.65;;
17510;SDS011;8873;48.818;9.422;2022-07-18T14:22:37;3.58;;;2.03;;
17510;SDS011;8873;48.818;9.422;2022-07-18T14:25:06;2.55;;;2.15;;
17510;SDS011;8873;48.818;9.422;2022-07-18T14:27:34;2.30;;;2.10;;
17510;SDS011;8873;48.818;9.422;2022-07-18T14:30:02;2.17;;;2.08;;
17510;SDS011;8873;48.818;9.422;2022-07-18T14:32:30;2.00;;;1.92;;
17510;SDS011;8873;48.818;9.422;2022-07-18T14:34:58;2.17;;;2.08;;
17510;SDS011;8873;48.818;9.422;2022-07-18T14:37:26;2.20;;;2.10;;
17510;SDS011;8873;48.818;9.422;2022-07-18T14:39:55;6.32;;;2.28;;
17510;SDS011;8873;48.818;9.422;2022-07-18T14:42:23;2.00;;;1.90;;
17510;SDS011;8873;48.818;9.422;2022-07-18T14:44:51;2.25;;;2.15;;
17510;SDS011;8873;48.818;9.422;2022-07-18T14:47:18;3.08;;;2.15;;
17510;SDS011;8873;48.818;9.422;2022-07-18T14:49:46;7.25;;;2.08;;
17510;SDS011;8873;48.818;9.422;2022-07-18T14:52:14;3.05;;;2.20;;
17510;SDS011;8873;48.818;9.422;2022-07-18T14:54:42;5.35;;;2.08;;
17510;SDS011;8873;48.818;9.422;2022-07-18T14:57:11;2.78;;;2.30;;
17510;SDS011;8873;48.818;9.422;2022-07-18T14:59:42;3.30;;;2.30;;
17510;SDS011;8873;48.818;9.422;2022-07-18T15:02:10;2.42;;;2.22;;
17510;SDS011;8873;48.818;9.422;2022-07-18T15:04:39;2.30;;;2.10;;
17510;SDS011;8873;48.818;9.422;2022-07-18T15:07:06;2.35;;;2.25;;
17510;SDS011;8873;48.818;9.422;2022-07-18T15:09:34;2.78;;;2.08;;
17510;SDS011;8873;48.818;9.422;2022-07-18T15:12:02;2.33;;;2.13;;
17510;SDS011;8873;48.818;9.422;2022-07-18T15:14:31;2.33;;;2.22;;
17510;SDS011;8873;48.818;9.422;2022-07-18T15:16:59;2.22;;;2.10;;
17510;SDS011;8873;48.818;9.422;2022-07-18T15:19:27;2.38;;;2.22;;
17510;SDS011;8873;48.818;9.422;2022-07-18T15:21:54;2.95;;;2.20;;